首页
METAR-TAF:

METAR-TAF

机场 :

福島機場

郡山, 日本

纬度: 37-24N, 经度: 140-23E, 海拔: 372米

当前天气观测

该预报发布于16分钟前的08:00 UTC
风速11节,风向北转西北
温度 8°C
湿度 61%
气压 1020 hPa
能见度10公里或以上
少量云层高于3000英尺
散云层高于4500英尺
多云层高于5000英尺
小阵雨

METAR: RJSF 200800Z 33011KT 9999 -SHRA FEW030 SCT045 BKN050 08/01 Q1020

时间: 17:16 (08:16 UTC)

预报

该预报发布于3小时和11分钟前的05:05 UTC
预报有效从20日的 06点(UTC)到 21日的 12点(UTC)
风速10节,风向北转西北
能见度10公里或以上
少量云层高于2000英尺
散云层高于4000英尺
成为
从 20日的 18点(UTC)到 20日的 21点(UTC)
风速8节,风向南转西南
短暂存在
从 20日的 18点(UTC)到 21日的 00点(UTC)
能見度: 3000
轻雾

TAF: RJSF 200505Z 2006/2112 33010KT 9999 FEW020 SCT040 BECMG 2018/2021 20008KT TEMPO 2018/2100 3000 BR

超过4000个机场的气象观测和天气预报(METAR&TAF报告)。

可查询的气象台以黄色和红色小点在地图上表示。

将鼠标移到小点上方,可查看气象台名称。

然后点击查看天气观测和预报。

如需切换地图:点击带黑十字的绿色按钮放大地图;点击带横线的绿色按钮缩小地图;或者点击绿色箭头查看邻近地区的地图。


METAR-TAF: